Terminal Aerodrome Forecast
Issued by NWS Blacksburg, VA

Home | Current Version | Previous Version | Text Only | Print | Product List | Glossary On
Versions: 1 2 3 4 5 6 7 8 9 10 11 12 13 14 15 16 17 18 19 20 21 22 23 24 25 26 27 28 29 30
000
FTUS41 KRNK 280359 AAB
TAFLYH
TAF AMD
KLYH 280359Z 2804/2824 35005KT 5SM -TSRA BKN035CB OVC050
      TEMPO 2804/2806 2SM TSRA OVC025CB
     FM280600 00000KT 4SM BR BKN080
     FM281300 18004KT P6SM SCT100
     FM281900 19005KT P6SM VCSH BKN050=

USA.gov is the U.S. government's official web portal to all federal, state and local government web resources and services.